메인 페이지
METAR-TAF:

METAR-TAF

공항 :

디레다와, 에티오피아

위도: 09-36N, 경도: 041-52E, 고도: 1146m

현재 날씨관측

예보는 27분 전, 07:00시(UTC)에 발표되었습니다.
서북서10kt
온도 26°C
습도 61%
기압 1022 hPa
시정 10km 이상
고도 2700ft 상공 구름 보통

METAR: HADR 210700Z 29010KT 9999 SCT027 26/18 Q1022

시각: 10:27 (07:27 UTC)

예보

예보는 15 시간 57분 전, 15:30시(UTC)에 발표되었습니다.
예보 대상 시간: 20일 18시부터 21일 24시까지 (UTC)
4kt
시정 10km 이상
고도 3000ft 상공 구름 조금
고도 8000ft 상공 구름 보통
전환 중
20일 10시부터 20일 15시까지 (UTC)
시정: 9000m

TAF: HADR 201530Z 2018/2124 18004KT 9999 FEW030 SCT080 BECMG 2010/2015 9000 RA

4,000개 이상의 공항 관측 자료 및 예보 (METAR 및 TAF 보고).

지도상에서 검색 가능한 기상관측소가 노란 점과 빨간 점으로 표시되어 있습니다.

기상관측소 명을 보려면 표시 위로 마우스를 이동하세요.

날씨 관측과 예보를 보려면 클릭하세요.

지도 변경 : 확대하려면 엑스 표시가 있는 녹색 버튼, 축소하려면 빼기 표시가 있는 녹색 버튼, 다음 페이지의 지도를 보려면 녹색 화살표를 클릭하세요.


METAR-TAF: